createdAt,value
2023-04-19T00:02:29.353Z,40.9
2023-04-19T00:07:30.033Z,40.8
2023-04-19T00:12:30.595Z,40.8
2023-04-19T00:17:31.099Z,40.7
2023-04-19T00:22:31.693Z,40.6
2023-04-19T00:27:32.214Z,40.6
2023-04-19T00:32:32.775Z,40.6
2023-04-19T00:37:33.318Z,40.5
2023-04-19T00:42:33.917Z,40.4
2023-04-19T00:47:34.466Z,40.4
2023-04-19T00:52:34.946Z,40.3
2023-04-19T00:57:35.614Z,40.2
2023-04-19T01:02:36.186Z,40.2
2023-04-19T01:07:36.837Z,40.2
2023-04-19T01:12:37.309Z,40.1
2023-04-19T01:17:37.830Z,40.1
2023-04-19T01:22:38.397Z,40
2023-04-19T01:27:38.890Z,40
2023-04-19T01:32:39.422Z,39.9
2023-04-19T01:37:39.921Z,39.9
2023-04-19T01:42:40.522Z,39.9
2023-04-19T01:47:41.071Z,39.8
2023-04-19T01:52:41.695Z,39.7
2023-04-19T01:57:43.030Z,39.7
2023-04-19T02:02:43.528Z,39.6
2023-04-19T02:07:44.092Z,39.6
2023-04-19T02:12:44.589Z,39.6
2023-04-19T02:17:45.090Z,39.5
2023-04-19T02:22:45.564Z,39.5
2023-04-19T02:27:46.007Z,39.4
2023-04-19T02:32:46.553Z,39.4
2023-04-19T02:37:47.038Z,39.4
2023-04-19T02:42:47.575Z,39.3
2023-04-19T02:47:48.021Z,39.2
2023-04-19T02:52:48.513Z,39.2
2023-04-19T02:57:48.999Z,39.2
2023-04-19T03:02:49.757Z,39.1
2023-04-19T03:07:50.255Z,39.1
2023-04-19T03:12:50.743Z,39.1
2023-04-19T03:17:51.226Z,39
2023-04-19T03:22:51.788Z,38.9
2023-04-19T03:27:52.285Z,38.9
2023-04-19T03:32:52.785Z,38.9
2023-04-19T03:37:53.398Z,38.8
2023-04-19T03:42:53.863Z,38.7
2023-04-19T03:47:54.372Z,38.7
2023-04-19T03:52:54.913Z,38.7
2023-04-19T03:57:55.367Z,38.7
2023-04-19T04:02:55.996Z,38.6
2023-04-19T04:07:57.097Z,38.6
2023-04-19T04:12:57.629Z,38.6
2023-04-19T04:17:58.137Z,38.5
2023-04-19T04:22:58.685Z,38.5
2023-04-19T04:27:59.160Z,38.4
2023-04-19T04:32:59.732Z,38.4
2023-04-19T04:38:00.455Z,38.4
2023-04-19T04:43:00.952Z,38.3
2023-04-19T04:48:01.482Z,38.2
2023-04-19T04:53:01.931Z,38.2
2023-04-19T04:58:02.529Z,38.2
2023-04-19T05:03:03.373Z,38.1
2023-04-19T05:08:04.216Z,38.1
2023-04-19T05:13:04.635Z,38.1
2023-04-19T05:18:05.138Z,38.1
2023-04-19T05:23:05.703Z,38
2023-04-19T05:28:06.144Z,37.9
2023-04-19T05:33:06.675Z,37.9
2023-04-19T05:38:07.060Z,37.9
2023-04-19T05:43:07.536Z,37.9
2023-04-19T05:48:08.048Z,37.8
2023-04-19T05:53:08.481Z,37.7
2023-04-19T05:58:09.073Z,37.7
2023-04-19T06:03:09.656Z,37.7
2023-04-19T06:08:10.427Z,37.7
2023-04-19T06:13:10.972Z,37.6
2023-04-19T06:18:19.245Z,37.6
2023-04-19T06:23:20.191Z,37
2023-04-19T06:28:20.602Z,36.9
2023-04-19T06:33:21.020Z,36.8
2023-04-19T06:38:21.454Z,36.7
2023-04-19T06:43:21.875Z,36.7
2023-04-19T06:48:22.310Z,36.7
2023-04-19T06:53:22.680Z,36.6
2023-04-19T06:58:23.083Z,36.6
2023-04-19T07:03:23.781Z,36.6
2023-04-19T07:08:26.288Z,36.6
2023-04-19T07:13:30.271Z,36.5
2023-04-19T07:18:30.731Z,36.5
2023-04-19T07:23:31.225Z,36.4
2023-04-19T07:28:31.614Z,36.4
2023-04-19T07:33:32.049Z,36.4
2023-04-19T07:38:32.592Z,36.4
2023-04-19T07:43:32.948Z,36.3
2023-04-19T07:48:33.355Z,36.3
2023-04-19T07:53:33.814Z,36.2
2023-04-19T07:58:34.284Z,36.2
2023-04-19T08:03:35.012Z,36.2
2023-04-19T08:08:35.577Z,36.2
2023-04-19T08:13:35.953Z,36.1
2023-04-19T08:18:36.597Z,36.1
2023-04-19T08:23:45.239Z,36.1
2023-04-19T08:28:49.018Z,36.1
2023-04-19T08:33:49.475Z,36.1
2023-04-19T08:38:58.336Z,36
2023-04-19T08:44:04.641Z,36
2023-04-19T08:49:05.327Z,35.9
2023-04-19T08:54:05.739Z,35.9
2023-04-19T08:59:17.886Z,35.9
2023-04-19T09:04:34.317Z,35.9
2023-04-19T09:09:41.001Z,35.8
2023-04-19T09:14:50.580Z,35.8
2023-04-19T09:20:00.554Z,35.7
2023-04-19T09:30:04.431Z,35.7
2023-04-19T09:35:04.905Z,35.6
2023-04-19T09:40:05.299Z,35.6
2023-04-19T09:50:19.198Z,35.6
2023-04-19T09:55:27.327Z,35.5
2023-04-19T10:00:33.519Z,35.5
2023-04-19T10:05:39.473Z,35.4
2023-04-19T10:10:42.265Z,35.4
2023-04-19T10:15:50.967Z,35.4
2023-04-19T10:20:53.031Z,35.4
2023-04-19T10:25:53.421Z,35.4
2023-04-19T10:30:53.797Z,35.3
2023-04-19T10:35:54.212Z,35.3
2023-04-19T10:40:54.754Z,35.2
2023-04-19T10:45:55.144Z,34.9
2023-04-19T10:50:55.497Z,34.7
2023-04-19T10:55:55.942Z,34.7
2023-04-19T11:00:56.325Z,34.7
2023-04-19T11:05:56.657Z,34.6
2023-04-19T11:10:57.035Z,34.6
2023-04-19T11:15:57.385Z,34.6
2023-04-19T11:20:58.064Z,34.6
2023-04-19T11:25:58.443Z,34.5
2023-04-19T11:30:58.816Z,34.5
2023-04-19T11:35:59.157Z,34.5
2023-04-19T11:40:59.500Z,34.4
2023-04-19T11:45:59.809Z,34.4
2023-04-19T11:51:00.150Z,34.4
2023-04-19T11:56:00.468Z,34.4
2023-04-19T12:01:00.956Z,34.4
2023-04-19T12:06:01.544Z,34.3
2023-04-19T12:11:02.023Z,34.3
2023-04-19T12:16:02.333Z,34.3
2023-04-19T12:21:02.835Z,34.2
2023-04-19T12:26:03.220Z,34.2
2023-04-19T12:31:03.764Z,34.2
2023-04-19T12:36:04.067Z,34.2
2023-04-19T12:41:04.514Z,34.2
2023-04-19T12:46:04.983Z,34.1
2023-04-19T12:51:05.303Z,34.1
2023-04-19T12:56:05.648Z,34.1
2023-04-19T13:01:06.011Z,34.1
2023-04-19T13:06:06.395Z,34.1
2023-04-19T13:11:07.716Z,34.1
2023-04-19T13:16:08.176Z,34
2023-04-19T13:21:08.889Z,34
2023-04-19T13:26:09.242Z,34
2023-04-19T13:31:09.705Z,33.9
2023-04-19T13:36:12.828Z,33.9
2023-04-19T13:41:13.267Z,33.9
2023-04-19T13:46:13.764Z,33.9
2023-04-19T13:51:14.255Z,33.9
2023-04-19T13:56:14.597Z,33.8
2023-04-19T14:01:14.978Z,33.8
2023-04-19T14:06:15.309Z,33.8
2023-04-19T14:11:15.627Z,33.8
2023-04-19T14:16:15.995Z,33.7
2023-04-19T14:21:16.363Z,33.7
2023-04-19T14:26:16.669Z,33.7
2023-04-19T14:31:16.948Z,33.7
2023-04-19T14:36:17.331Z,33.7
2023-04-19T14:41:17.632Z,33.7
2023-04-19T14:46:17.945Z,33.6
2023-04-19T14:51:19.073Z,33.6
2023-04-19T14:56:19.401Z,33.6
2023-04-19T15:01:19.771Z,33.6
2023-04-19T15:06:20.163Z,33.6
2023-04-19T15:11:20.473Z,33.6
2023-04-19T15:16:20.868Z,36.4
2023-04-19T15:21:23.729Z,38.7
2023-04-19T15:26:24.899Z,40.7
2023-04-19T15:31:25.488Z,41.9
2023-04-19T15:36:26.042Z,43.3
2023-04-19T15:41:26.609Z,44.3
2023-04-19T15:46:27.270Z,44.5
2023-04-19T15:51:28.205Z,44.4
2023-04-19T15:56:28.875Z,44.4
2023-04-19T16:01:29.519Z,44.4
2023-04-19T16:06:30.149Z,44.2
2023-04-19T16:11:31.006Z,44.5
2023-04-19T16:16:31.679Z,44.5
2023-04-19T16:21:32.327Z,45.1
2023-04-19T16:26:32.968Z,45.5
2023-04-19T16:31:33.682Z,45.5
2023-04-19T16:36:34.504Z,45.5
2023-04-19T16:41:35.165Z,45.5
2023-04-19T16:46:35.933Z,45.4
2023-04-19T16:51:36.645Z,45.4
2023-04-19T16:56:37.329Z,45.4
2023-04-19T17:01:38.022Z,45.8
2023-04-19T17:06:38.856Z,46.3
2023-04-19T17:11:39.580Z,46.9
2023-04-19T17:16:40.240Z,47.1
2023-04-19T17:21:40.966Z,47.1
2023-04-19T17:26:41.903Z,47.1
2023-04-19T17:31:46.217Z,47
2023-04-19T17:36:46.950Z,47
2023-04-19T17:41:48.890Z,46.9
2023-04-19T17:46:49.639Z,46.9
2023-04-19T17:51:50.526Z,46.9
2023-04-19T17:56:51.364Z,46.9
2023-04-19T18:01:52.116Z,46.8
2023-04-19T18:06:52.994Z,46.8
2023-04-19T18:11:53.702Z,46.7
2023-04-19T18:16:54.533Z,46.7
2023-04-19T18:21:55.364Z,46.7
2023-04-19T18:26:56.101Z,46.7
2023-04-19T18:31:56.889Z,46.6
2023-04-19T18:36:57.655Z,46.6
2023-04-19T18:41:58.484Z,46.6
2023-04-19T18:46:59.444Z,46.5
2023-04-19T18:52:00.156Z,46.5
2023-04-19T18:57:18.963Z,46.4
2023-04-19T19:02:22.534Z,46.4
2023-04-19T19:07:34.755Z,46.4
2023-04-19T19:12:36.410Z,46.3
2023-04-19T19:17:37.985Z,46.3
2023-04-19T19:22:38.786Z,46.2
2023-04-19T19:27:40.059Z,46.2
2023-04-19T19:32:40.956Z,46.2
2023-04-19T19:37:41.658Z,46.1
2023-04-19T19:42:42.321Z,46
2023-04-19T19:47:45.528Z,46
2023-04-19T19:52:46.951Z,45.9
2023-04-19T19:58:20.917Z,45.9
2023-04-19T20:03:36.671Z,45.9
2023-04-19T20:08:41.485Z,45.8
2023-04-19T20:13:44.801Z,45.8
2023-04-19T20:18:45.445Z,45.8
2023-04-19T20:23:46.332Z,45.7
2023-04-19T20:28:47.212Z,45.6
2023-04-19T20:33:47.875Z,45.6
2023-04-19T20:38:49.630Z,45.6
2023-04-19T20:43:50.292Z,45.5
2023-04-19T20:48:51.021Z,45.4
2023-04-19T20:53:51.692Z,45.4
2023-04-19T20:58:52.376Z,45.4
2023-04-19T21:03:53.149Z,45.3
2023-04-19T21:08:53.950Z,45.2
2023-04-19T21:13:54.623Z,45.2
2023-04-19T21:18:55.239Z,45.1
2023-04-19T21:23:55.878Z,45.1
2023-04-19T21:28:56.551Z,45.1
2023-04-19T21:33:57.202Z,45
2023-04-19T21:38:57.854Z,44.9
2023-04-19T21:43:58.590Z,44.9
2023-04-19T21:48:59.289Z,44.9
2023-04-19T21:53:59.953Z,44.8
2023-04-19T21:59:00.603Z,44.7
2023-04-19T22:04:01.468Z,44.7
2023-04-19T22:09:02.377Z,44.7
2023-04-19T22:14:03.003Z,44.6
2023-04-19T22:19:03.668Z,44.6
2023-04-19T22:24:04.265Z,44.5
2023-04-19T22:29:04.932Z,44.4
2023-04-19T22:34:05.567Z,44.4
2023-04-19T22:39:06.168Z,44.4
2023-04-19T22:44:06.830Z,44.3
2023-04-19T22:49:07.411Z,44.2
2023-04-19T22:54:08.015Z,44.2
2023-04-19T22:59:08.612Z,44.2
2023-04-19T23:04:09.226Z,44.1
2023-04-19T23:09:09.866Z,44.1
2023-04-19T23:14:10.525Z,44
2023-04-19T23:19:11.157Z,44
2023-04-19T23:24:11.761Z,43.9
2023-04-19T23:29:12.334Z,43.9
2023-04-19T23:34:12.961Z,43.8
2023-04-19T23:39:13.641Z,43.7
2023-04-19T23:44:15.109Z,43.7
2023-04-19T23:49:16.020Z,43.7
2023-04-19T23:54:16.917Z,43.6
2023-04-19T23:59:17.587Z,43.6
